Terminal Aerodrome Forecast
Issued by NWS

Home | Current Version | Previous Version | Text Only | Print | Product List | Glossary On
Versions: 1 2 3 4 5 6 7 8 9 10 11 12 13 14 15
784
FTUS43 KIND 282320
TAFHUF
TAF
KHUF 282320Z 2900/2924 01008KT P6SM OVC035
     FM290200 02007KT P6SM OVC030
     FM290900 05006KT P6SM OVC015
     FM291400 08009KT P6SM OVC015
     FM291500 08010KT P6SM OVC020
     FM291600 08010KT P6SM OVC035=

USA.gov is the U.S. government's official web portal to all federal, state and local government web resources and services.